Time;durP1;ratioP1;P1;durP2;ratioP2;P2;SDS_P1;SDS_P2;PMS_P1;PMS_P2;Temp;Humidity;BMP_temperature;BMP_pressure;BME280_temperature;BME280_humidity;BME280_pressure;Samples;Min_cycle;Max_cycle;Signal;HPM_P1;HPM_P2
2023/08/28 20:12:03;;;;;;;8.75;5.22;;;21.10;99.90;;;;;;4799980;29;1391148;-78
2023/08/28 20:14:37;;;;;;;4.28;3.88;;;21.20;99.90;;;;;;4862739;29;20444;-82
2023/08/28 20:17:06;;;;;;;7.45;5.00;;;21.20;99.90;;;;;;4834422;29;20033;-82
2023/08/28 20:19:34;;;;;;;6.22;5.72;;;21.20;99.90;;;;;;4849700;29;20390;-81
2023/08/28 20:22:01;;;;;;;8.38;6.28;;;21.10;99.90;;;;;;4841142;29;20338;-83
2023/08/28 20:24:27;;;;;;;9.00;6.90;;;21.20;99.90;;;;;;4864906;29;20029;-80
2023/08/28 20:26:53;;;;;;;6.30;5.80;;;21.10;99.90;;;;;;4849045;29;20025;-82
2023/08/28 20:29:20;;;;;;;8.07;5.68;;;21.10;99.90;;;;;;4862039;29;20093;-78
2023/08/28 20:31:46;;;;;;;9.73;7.05;;;21.00;99.90;;;;;;4863478;29;20397;-77
2023/08/28 20:34:11;;;;;;;8.75;5.60;;;20.90;99.90;;;;;;4860758;29;20509;-78
2023/08/28 20:36:46;;;;;;;4.88;4.47;;;20.90;99.90;;;;;;4861570;29;20029;-76
2023/08/28 20:39:12;;;;;;;4.00;3.65;;;20.90;99.90;;;;;;4860706;29;20029;-77
2023/08/28 20:41:38;;;;;;;3.13;2.17;;;20.80;99.90;;;;;;4855876;29;20105;-77
2023/08/28 20:44:05;;;;;;;4.22;2.80;;;20.80;99.90;;;;;;4863024;29;20033;-78
2023/08/28 20:46:31;;;;;;;3.75;3.40;;;20.70;99.90;;;;;;4846396;29;20148;-78
2023/08/28 20:48:58;;;;;;;3.78;3.45;;;20.70;99.90;;;;;;4837766;29;20461;-76
2023/08/28 20:51:26;;;;;;;5.50;4.05;;;20.70;99.90;;;;;;4838235;29;20060;-77
2023/08/28 20:53:52;;;;;;;3.83;3.53;;;20.80;99.90;;;;;;4863220;29;20124;-78
2023/08/28 20:56:19;;;;;;;3.35;2.70;;;20.70;99.90;;;;;;4845692;29;20493;-78
2023/08/28 20:58:45;;;;;;;5.93;2.78;;;20.70;99.90;;;;;;4858669;29;20081;-77
2023/08/28 21:01:10;;;;;;;2.60;2.15;;;20.70;99.90;;;;;;4860694;29;20033;-77
2023/08/28 21:03:36;;;;;;;2.47;1.50;;;20.60;99.90;;;;;;4852458;29;20133;-77
2023/08/28 21:06:03;;;;;;;1.60;1.38;;;20.50;99.90;;;;;;4862380;29;20025;-77
2023/08/28 21:08:29;;;;;;;2.08;1.33;;;20.50;99.90;;;;;;4863259;29;20033;-77
2023/08/28 21:10:55;;;;;;;1.35;1.17;;;20.50;99.90;;;;;;4860436;29;20497;-79
2023/08/28 21:13:23;;;;;;;3.70;1.30;;;20.40;99.90;;;;;;4838269;29;20044;-79
2023/08/28 21:15:49;;;;;;;1.55;1.00;;;20.40;99.90;;;;;;4851822;29;20041;-80
2023/08/28 21:18:16;;;;;;;2.72;1.42;;;20.30;99.90;;;;;;4861530;29;20040;-79
2023/08/28 21:20:42;;;;;;;1.48;1.38;;;20.30;99.90;;;;;;4866034;29;20028;-80
2023/08/28 21:23:08;;;;;;;2.00;1.70;;;20.30;99.90;;;;;;4833443;29;20437;-81
2023/08/28 21:25:34;;;;;;;3.50;1.55;;;20.20;99.90;;;;;;4852449;29;20034;-84
2023/08/28 21:28:00;;;;;;;2.05;1.88;;;20.30;99.90;;;;;;4865903;29;20033;-83
2023/08/28 21:30:25;;;;;;;2.00;1.90;;;20.30;99.90;;;;;;4867333;29;20036;-83
2023/08/28 21:32:51;;;;;;;2.75;1.42;;;20.20;99.90;;;;;;4861607;29;20511;-83
2023/08/28 21:35:18;;;;;;;2.17;1.33;;;20.10;99.90;;;;;;4863461;29;20508;-83
2023/08/28 21:37:44;;;;;;;1.92;1.80;;;20.20;99.90;;;;;;4847543;29;20041;-83
2023/08/28 21:40:10;;;;;;;4.65;3.22;;;20.10;99.90;;;;;;4867490;29;20030;-83
2023/08/28 21:42:36;;;;;;;4.70;3.65;;;20.10;99.90;;;;;;4845116;29;20174;-83
2023/08/28 21:45:01;;;;;;;5.65;4.70;;;20.10;99.90;;;;;;4845728;29;20128;-83
2023/08/28 21:47:28;;;;;;;5.38;4.55;;;20.10;99.90;;;;;;4860338;29;20167;-83
2023/08/28 21:49:54;;;;;;;4.82;4.40;;;20.10;99.90;;;;;;4843273;29;20127;-83
2023/08/28 21:52:20;;;;;;;5.65;3.63;;;20.20;99.90;;;;;;4847129;29;20087;-83
2023/08/28 21:54:46;;;;;;;2.13;1.92;;;20.20;99.90;;;;;;4858173;29;20033;-82
2023/08/28 21:57:12;;;;;;;2.92;1.52;;;20.10;99.90;;;;;;4859208;29;20402;-83
2023/08/28 21:59:38;;;;;;;5.32;1.88;;;20.10;99.90;;;;;;4841646;29;20037;-83
2023/08/28 22:02:03;;;;;;;5.30;1.20;;;20.10;99.90;;;;;;4865894;29;20098;-83
2023/08/28 22:04:29;;;;;;;3.97;1.40;;;20.00;99.90;;;;;;4865598;29;20029;-84
2023/08/28 22:06:55;;;;;;;1.70;1.35;;;20.00;99.90;;;;;;4864149;29;20033;-84
2023/08/28 22:09:22;;;;;;;1.58;0.95;;;19.90;99.90;;;;;;4861591;29;20400;-83
2023/08/28 22:11:50;;;;;;;1.10;1.10;;;19.90;99.90;;;;;;4842344;29;20053;-84
2023/08/28 22:14:16;;;;;;;3.70;1.17;;;19.90;99.90;;;;;;4838380;29;20033;-84
2023/08/28 22:16:41;;;;;;;3.30;0.93;;;19.90;99.90;;;;;;4843685;29;20499;-84
2023/08/28 22:19:07;;;;;;;2.72;1.60;;;19.90;99.90;;;;;;4850290;29;20101;-84
2023/08/28 22:21:33;;;;;;;1.20;1.10;;;19.90;99.90;;;;;;4847512;29;20484;-84
2023/08/28 22:23:59;;;;;;;1.45;0.80;;;20.00;99.90;;;;;;4868007;29;20508;-83
2023/08/28 22:26:25;;;;;;;0.98;0.80;;;20.00;99.90;;;;;;4878976;29;20040;-83
2023/08/28 22:28:50;;;;;;;1.23;1.00;;;20.00;99.90;;;;;;4846941;29;20058;-84
2023/08/28 22:31:16;;;;;;;0.93;0.93;;;20.00;96.70;;;;;;4841086;29;20030;-84
2023/08/28 22:33:42;;;;;;;1.55;0.98;;;20.10;99.90;;;;;;4849958;29;20451;-79
2023/08/28 22:36:07;;;;;;;2.42;0.88;;;20.10;94.10;;;;;;4855918;29;20061;-79
2023/08/28 22:38:33;;;;;;;3.25;1.00;;;20.00;96.50;;;;;;4864125;29;20049;-79
2023/08/28 22:40:59;;;;;;;2.35;0.93;;;20.00;99.90;;;;;;4843249;29;20234;-79
2023/08/28 22:43:25;;;;;;;1.13;1.02;;;20.10;99.90;;;;;;4848789;29;20097;-79
2023/08/28 22:45:50;;;;;;;4.55;0.90;;;20.10;99.90;;;;;;4846878;29;20117;-79
2023/08/28 22:48:16;;;;;;;2.88;1.25;;;20.00;99.90;;;;;;4837856;29;20044;-79
2023/08/28 22:50:42;;;;;;;1.50;0.68;;;20.00;99.90;;;;;;4851251;29;20032;-79
2023/08/28 22:53:08;;;;;;;3.28;1.02;;;20.00;99.90;;;;;;4841335;29;20093;-79
2023/08/28 22:55:34;;;;;;;2.67;0.90;;;19.90;99.90;;;;;;4868607;29;20065;-79
2023/08/28 22:58:00;;;;;;;2.17;0.98;;;20.00;99.90;;;;;;4840906;29;20493;-79
2023/08/28 23:00:26;;;;;;;0.85;0.85;;;20.00;99.90;;;;;;4866046;29;20036;-79
2023/08/28 23:02:52;;;;;;;0.98;0.90;;;20.00;99.90;;;;;;4842166;29;20435;-79
2023/08/28 23:05:22;;;;;;;2.55;0.90;;;20.10;99.90;;;;;;4839191;29;20041;-79
2023/08/28 23:07:50;;;;;;;1.00;0.90;;;20.00;99.90;;;;;;4866354;29;20457;-78
2023/08/28 23:10:16;;;;;;;0.82;0.80;;;20.10;95.50;;;;;;4841947;29;20481;-79
2023/08/28 23:12:41;;;;;;;2.05;0.82;;;20.00;99.90;;;;;;4866994;29;20104;-79
2023/08/28 23:15:08;;;;;;;1.08;0.80;;;19.90;94.90;;;;;;4843959;29;20569;-79
2023/08/28 23:17:33;;;;;;;4.28;1.15;;;19.90;99.90;;;;;;4855118;29;20448;-79
2023/08/28 23:19:59;;;;;;;1.50;1.08;;;19.90;99.90;;;;;;4871703;29;20029;-78
2023/08/28 23:22:25;;;;;;;1.20;1.10;;;19.90;99.90;;;;;;4852424;29;20446;-79
2023/08/28 23:24:51;;;;;;;2.03;1.13;;;19.80;99.90;;;;;;4865759;29;20458;-79
2023/08/28 23:27:17;;;;;;;1.63;0.95;;;19.70;99.90;;;;;;4857915;29;20152;-79
2023/08/28 23:29:43;;;;;;;1.50;1.00;;;19.80;99.90;;;;;;4859899;29;20037;-79
2023/08/28 23:32:09;;;;;;;1.95;1.52;;;19.80;99.90;;;;;;4839130;29;20115;-79
2023/08/28 23:34:36;;;;;;;1.63;0.88;;;19.80;99.90;;;;;;4865929;29;20042;-79
2023/08/28 23:37:08;;;;;;;7.53;1.17;;;19.80;99.90;;;;;;4852235;29;20490;-79
2023/08/28 23:39:35;;;;;;;0.82;0.82;;;19.90;99.90;;;;;;4866520;29;20026;-79
2023/08/28 23:42:01;;;;;;;1.58;0.90;;;19.90;99.90;;;;;;4865145;29;20228;-79
2023/08/28 23:44:27;;;;;;;3.70;1.25;;;19.90;99.90;;;;;;4865001;29;20029;-79
2023/08/28 23:46:53;;;;;;;2.00;1.60;;;19.80;99.90;;;;;;4839650;29;20056;-79
2023/08/28 23:49:19;;;;;;;4.47;2.10;;;19.80;99.90;;;;;;4865985;29;20416;-79
2023/08/28 23:51:44;;;;;;;3.53;1.98;;;19.70;99.90;;;;;;4867285;29;20053;-79
2023/08/28 23:54:10;;;;;;;2.70;2.50;;;19.70;99.90;;;;;;4865273;29;20068;-78
2023/08/28 23:56:36;;;;;;;5.07;3.15;;;19.70;99.90;;;;;;4844507;29;20126;-78
2023/08/28 23:59:02;;;;;;;4.13;2.70;;;19.70;99.90;;;;;;4853831;29;20138;-79
